Time;durP1;ratioP1;P1;durP2;ratioP2;P2;SDS_P1;SDS_P2;PMS_P1;PMS_P2;Temp;Humidity;BMP_temperature;BMP_pressure;BME280_temperature;BME280_humidity;BME280_pressure;Samples;Min_cycle;Max_cycle;Signal;HPM_P1;HPM_P2
2022/08/01 00:02:18;;;;;;;2.63;2.53;;;;;;;;;;5014852;28;20447;-76
2022/08/01 00:04:45;;;;;;;3.17;2.97;;;;;;;;;;5014035;28;20463;-76
2022/08/01 00:07:12;;;;;;;2.97;2.77;;;;;;;;;;5013883;28;20497;-76
2022/08/01 00:09:39;;;;;;;3.37;3.07;;;;;;;;;;5009100;28;20495;-78
2022/08/01 00:12:06;;;;;;;3.43;3.13;;;;;;;;;;4994041;28;20448;-76
2022/08/01 00:14:34;;;;;;;3.37;3.10;;;;;;;;;;4993611;28;20476;-75
2022/08/01 00:17:01;;;;;;;3.40;3.10;;;;;;;;;;4993723;28;20480;-76
2022/08/01 00:19:29;;;;;;;2.90;2.63;;;;;;;;;;4993433;28;20444;-76
2022/08/01 00:21:56;;;;;;;3.40;3.10;;;;;;;;;;4993257;28;20495;-78
2022/08/01 00:24:23;;;;;;;3.10;2.90;;;;;;;;;;4993245;28;20472;-76
2022/08/01 00:26:50;;;;;;;2.90;2.80;;;;;;;;;;4993131;28;20441;-77
2022/08/01 00:29:17;;;;;;;3.50;3.20;;;;;;;;;;4993473;28;20514;-77
2022/08/01 00:31:44;;;;;;;2.77;2.67;;;;;;;;;;4993529;28;20995;-76
2022/08/01 00:34:11;;;;;;;3.37;3.17;;;;;;;;;;4993219;28;20464;-75
2022/08/01 00:36:39;;;;;;;3.60;3.30;;;;;;;;;;4993330;28;20918;-76
2022/08/01 00:39:06;;;;;;;2.90;2.70;;;;;;;;;;4993509;28;20498;-77
2022/08/01 00:41:33;;;;;;;3.63;3.37;;;;;;;;;;4993115;28;20939;-74
2022/08/01 00:44:03;;;;;;;3.33;3.03;;;;;;;;;;4993127;28;20905;-78
2022/08/01 00:46:30;;;;;;;3.30;3.10;;;;;;;;;;4993550;28;20468;-75
2022/08/01 00:48:58;;;;;;;3.17;2.97;;;;;;;;;;4993385;28;20444;-78
2022/08/01 00:51:25;;;;;;;3.00;2.90;;;;;;;;;;4992299;28;20448;-75
2022/08/01 00:53:54;;;;;;;4.13;3.03;;;;;;;;;;4993356;28;20977;-76
2022/08/01 00:56:21;;;;;;;2.93;2.73;;;;;;;;;;4993702;28;20441;-75
2022/08/01 00:58:48;;;;;;;3.20;3.00;;;;;;;;;;4993164;28;20491;-77
2022/08/01 01:01:15;;;;;;;3.60;3.30;;;;;;;;;;4993552;28;20857;-78
2022/08/01 01:03:42;;;;;;;3.53;3.23;;;;;;;;;;4992790;28;20534;-75
2022/08/01 01:06:14;;;;;;;3.33;3.00;;;;;;;;;;4993436;28;20448;-76
2022/08/01 01:08:44;;;;;;;2.87;2.70;;;;;;;;;;4993116;28;20790;-77
2022/08/01 01:11:15;;;;;;;5.20;3.50;;;;;;;;;;4992984;28;20456;-75
2022/08/01 01:13:44;;;;;;;3.30;3.10;;;;;;;;;;4992861;28;20496;-75
2022/08/01 01:16:13;;;;;;;3.57;3.37;;;;;;;;;;4993687;28;20538;-76
2022/08/01 01:18:44;;;;;;;3.90;3.60;;;;;;;;;;4995906;28;20484;-75
2022/08/01 01:21:16;;;;;;;3.43;3.23;;;;;;;;;;4995949;28;20452;-75
2022/08/01 01:23:51;;;;;;;3.13;2.87;;;;;;;;;;4995659;28;20466;-76
2022/08/01 01:26:24;;;;;;;3.80;3.50;;;;;;;;;;4996398;28;20490;-76
2022/08/01 01:29:09;;;;;;;3.00;2.80;;;;;;;;;;4996156;28;20448;-76
2022/08/01 01:31:41;;;;;;;3.40;3.20;;;;;;;;;;4996401;28;20431;-77
2022/08/01 01:34:09;;;;;;;3.30;3.10;;;;;;;;;;4996070;28;20460;-76
2022/08/01 01:36:37;;;;;;;4.77;3.07;;;;;;;;;;4995860;28;20448;-76
2022/08/01 01:39:04;;;;;;;4.20;3.33;;;;;;;;;;4997524;28;20472;-75
2022/08/01 01:41:31;;;;;;;3.70;3.50;;;;;;;;;;5001862;28;20448;-76
2022/08/01 01:43:59;;;;;;;3.87;3.53;;;;;;;;;;5006438;28;20480;-76
2022/08/01 01:46:27;;;;;;;3.27;3.07;;;;;;;;;;5013135;28;20452;-75
2022/08/01 01:48:57;;;;;;;3.70;3.40;;;;;;;;;;5012810;28;20471;-75
2022/08/01 01:51:25;;;;;;;3.23;3.03;;;;;;;;;;5011231;28;20444;-75
2022/08/01 01:53:53;;;;;;;3.33;3.03;;;;;;;;;;5011320;28;20468;-74
2022/08/01 01:56:21;;;;;;;3.80;3.40;;;;;;;;;;5012290;28;20444;-76
2022/08/01 01:58:50;;;;;;;3.70;3.40;;;;;;;;;;5011492;28;20476;-75
2022/08/01 02:01:18;;;;;;;3.40;3.10;;;;;;;;;;5010402;28;20461;-76
2022/08/01 02:03:46;;;;;;;4.00;3.70;;;;;;;;;;5002295;28;20476;-76
2022/08/01 02:06:15;;;;;;;3.33;3.10;;;;;;;;;;4999436;28;20452;-75
2022/08/01 02:08:43;;;;;;;3.73;3.43;;;;;;;;;;4996004;28;20456;-76
2022/08/01 02:11:20;;;;;;;3.80;3.50;;;;;;;;;;4995143;28;20495;-76
2022/08/01 02:13:49;;;;;;;3.63;3.33;;;;;;;;;;4994760;28;20475;-74
2022/08/01 02:16:18;;;;;;;4.07;3.63;;;;;;;;;;4994631;28;20453;-75
2022/08/01 02:18:45;;;;;;;4.00;3.70;;;;;;;;;;4995565;28;20482;-75
2022/08/01 02:21:15;;;;;;;3.63;3.30;;;;;;;;;;4995416;28;20898;-76
2022/08/01 02:23:44;;;;;;;3.53;3.30;;;;;;;;;;4994652;28;20468;-75
2022/08/01 02:26:15;;;;;;;3.50;3.30;;;;;;;;;;4995472;28;20464;-76
2022/08/01 02:28:45;;;;;;;3.50;3.30;;;;;;;;;;4994385;28;20928;-75
2022/08/01 02:31:14;;;;;;;3.20;3.00;;;;;;;;;;4996826;28;20444;-75
2022/08/01 02:33:43;;;;;;;3.30;3.10;;;;;;;;;;4998466;28;20560;-76
2022/08/01 02:36:12;;;;;;;4.00;3.00;;;;;;;;;;4996346;28;20441;-76
2022/08/01 02:38:42;;;;;;;3.33;3.13;;;;;;;;;;4994619;28;20475;-75
2022/08/01 02:41:12;;;;;;;3.47;3.13;;;;;;;;;;4994309;28;20948;-76
2022/08/01 02:43:43;;;;;;;3.23;3.03;;;;;;;;;;4995595;28;20479;-77
2022/08/01 02:46:13;;;;;;;3.90;3.57;;;;;;;;;;4995300;28;20452;-76
2022/08/01 02:48:42;;;;;;;3.40;3.20;;;;;;;;;;4995638;28;20527;-75
2022/08/01 02:51:10;;;;;;;3.33;3.13;;;;;;;;;;4995516;28;20448;-75
2022/08/01 02:53:40;;;;;;;3.93;3.57;;;;;;;;;;4995339;28;20479;-74
2022/08/01 02:56:09;;;;;;;3.80;3.37;;;;;;;;;;4999006;28;20445;-74
2022/08/01 02:58:38;;;;;;;3.40;3.10;;;;;;;;;;4999920;28;20471;-76
2022/08/01 03:01:06;;;;;;;3.17;3.00;;;;;;;;;;4994614;28;20503;-76
2022/08/01 03:03:33;;;;;;;3.50;3.20;;;;;;;;;;4994970;28;20532;-77
2022/08/01 03:06:01;;;;;;;3.27;3.07;;;;;;;;;;4995156;28;20499;-76
2022/08/01 03:08:29;;;;;;;3.83;3.63;;;;;;;;;;4993851;28;20476;-75
2022/08/01 03:10:57;;;;;;;3.20;3.00;;;;;;;;;;5009404;28;20763;-75
2022/08/01 03:13:24;;;;;;;3.40;3.20;;;;;;;;;;5013662;28;20443;-75
2022/08/01 03:15:55;;;;;;;3.40;3.10;;;;;;;;;;5014820;28;20446;-75
2022/08/01 03:18:23;;;;;;;3.27;2.97;;;;;;;;;;5015305;28;20482;-77
2022/08/01 03:20:50;;;;;;;3.53;3.33;;;;;;;;;;5013728;28;20509;-76
2022/08/01 03:23:18;;;;;;;3.90;3.50;;;;;;;;;;5013569;28;20949;-76
2022/08/01 03:25:46;;;;;;;3.00;2.83;;;;;;;;;;5013737;28;20447;-76
2022/08/01 03:28:14;;;;;;;3.67;3.03;;;;;;;;;;5013126;28;20498;-76
2022/08/01 03:30:42;;;;;;;3.03;2.80;;;;;;;;;;5015301;28;20494;-75
2022/08/01 03:33:11;;;;;;;3.30;3.10;;;;;;;;;;5014958;28;20927;-75
2022/08/01 03:35:40;;;;;;;3.47;3.20;;;;;;;;;;5014624;28;20435;-75
2022/08/01 03:38:10;;;;;;;3.50;3.27;;;;;;;;;;5015311;28;20525;-75
2022/08/01 03:40:38;;;;;;;3.30;3.07;;;;;;;;;;5020833;28;20527;-75
2022/08/01 03:43:07;;;;;;;3.10;2.90;;;;;;;;;;5022631;28;20450;-75
2022/08/01 03:45:37;;;;;;;3.10;2.90;;;;;;;;;;5018604;28;20478;-76
2022/08/01 03:48:06;;;;;;;3.90;3.60;;;;;;;;;;5014518;28;20439;-76
2022/08/01 03:50:35;;;;;;;3.20;2.90;;;;;;;;;;5014495;28;20897;-76
2022/08/01 03:53:03;;;;;;;3.10;2.90;;;;;;;;;;5013738;28;20470;-76
2022/08/01 03:55:31;;;;;;;3.40;3.20;;;;;;;;;;5013795;28;20509;-76
2022/08/01 03:57:59;;;;;;;3.50;3.30;;;;;;;;;;5012410;28;20779;-75
2022/08/01 04:00:27;;;;;;;3.53;3.23;;;;;;;;;;5012500;28;20481;-76
2022/08/01 04:02:54;;;;;;;3.40;2.80;;;;;;;;;;5013765;28;20443;-76
2022/08/01 04:05:21;;;;;;;3.10;2.90;;;;;;;;;;5013334;28;20468;-75
2022/08/01 04:07:55;;;;;;;3.30;3.10;;;;;;;;;;5013818;28;20444;-75
2022/08/01 04:10:22;;;;;;;3.30;3.10;;;;;;;;;;5014172;28;20448;-75
2022/08/01 04:12:49;;;;;;;3.40;3.10;;;;;;;;;;5013433;28;20574;-76
2022/08/01 04:15:16;;;;;;;3.20;3.00;;;;;;;;;;5013602;28;21082;-76
2022/08/01 04:17:43;;;;;;;4.00;3.50;;;;;;;;;;5009675;28;20805;-75
2022/08/01 04:20:11;;;;;;;3.57;3.37;;;;;;;;;;5007627;28;20490;-75
2022/08/01 04:22:38;;;;;;;3.07;2.87;;;;;;;;;;5014025;28;20485;-75
2022/08/01 04:25:10;;;;;;;3.23;3.03;;;;;;;;;;4997280;28;20527;-76
2022/08/01 04:27:39;;;;;;;2.97;2.77;;;;;;;;;;5008655;28;20450;-76
2022/08/01 04:30:07;;;;;;;3.60;3.30;;;;;;;;;;5013898;28;20444;-75
2022/08/01 04:32:35;;;;;;;2.90;2.70;;;;;;;;;;5011832;28;20443;-77
2022/08/01 04:35:04;;;;;;;3.80;3.50;;;;;;;;;;5012243;28;20521;-76
2022/08/01 04:37:31;;;;;;;2.93;2.73;;;;;;;;;;5012373;28;20447;-75
2022/08/01 04:40:00;;;;;;;5.10;3.43;;;;;;;;;;5011847;28;20483;-76
2022/08/01 04:42:28;;;;;;;3.17;3.00;;;;;;;;;;5012033;28;20446;-75
2022/08/01 04:44:55;;;;;;;3.40;3.20;;;;;;;;;;5011843;28;20525;-75
2022/08/01 04:47:23;;;;;;;3.90;3.60;;;;;;;;;;5011769;28;20452;-76
2022/08/01 04:49:50;;;;;;;2.90;2.70;;;;;;;;;;5011749;28;20444;-76
2022/08/01 04:52:18;;;;;;;2.80;2.70;;;;;;;;;;5014913;28;20443;-75
2022/08/01 04:54:46;;;;;;;3.70;3.40;;;;;;;;;;5015253;28;20467;-76
2022/08/01 04:57:14;;;;;;;2.90;2.70;;;;;;;;;;5015513;28;20594;-76
2022/08/01 04:59:44;;;;;;;2.73;2.53;;;;;;;;;;5015115;28;20533;-76
2022/08/01 05:02:12;;;;;;;3.20;3.00;;;;;;;;;;5015389;28;20493;-76
2022/08/01 05:04:40;;;;;;;3.43;3.03;;;;;;;;;;5015286;28;20459;-75
2022/08/01 05:07:08;;;;;;;4.03;2.60;;;;;;;;;;5015770;28;20447;-76
2022/08/01 05:09:35;;;;;;;3.30;3.10;;;;;;;;;;5015272;28;20450;-76
2022/08/01 05:12:03;;;;;;;3.73;3.43;;;;;;;;;;5014971;28;20849;-76
2022/08/01 05:14:31;;;;;;;3.37;3.17;;;;;;;;;;5014896;28;20514;-75
2022/08/01 05:17:02;;;;;;;3.33;2.90;;;;;;;;;;5015078;28;20554;-76
2022/08/01 05:19:30;;;;;;;3.53;3.00;;;;;;;;;;5014996;28;20513;-76
2022/08/01 05:21:57;;;;;;;3.03;2.83;;;;;;;;;;5014857;28;20905;-75
2022/08/01 05:24:24;;;;;;;3.80;3.33;;;;;;;;;;5014505;28;21051;-76
2022/08/01 05:26:51;;;;;;;2.80;2.60;;;;;;;;;;5014535;28;20443;-76
2022/08/01 05:29:18;;;;;;;3.47;2.23;;;;;;;;;;5014802;28;20490;-76
2022/08/01 05:31:45;;;;;;;2.67;2.47;;;;;;;;;;5014851;28;20435;-76
2022/08/01 05:34:14;;;;;;;2.63;2.53;;;;;;;;;;5014630;28;20494;-77
2022/08/01 05:36:41;;;;;;;2.50;2.40;;;;;;;;;;5014382;28;20886;-75
2022/08/01 05:39:08;;;;;;;2.20;2.10;;;;;;;;;;5015603;28;20846;-76
2022/08/01 05:41:36;;;;;;;5.87;2.40;;;;;;;;;;5017797;28;20489;-76
2022/08/01 05:44:03;;;;;;;2.03;1.93;;;;;;;;;;5018938;28;20502;-75
2022/08/01 05:46:30;;;;;;;2.67;2.57;;;;;;;;;;5015301;28;20962;-76
2022/08/01 05:48:57;;;;;;;3.73;2.77;;;;;;;;;;5014736;28;20522;-76
2022/08/01 05:51:26;;;;;;;3.47;2.10;;;;;;;;;;5014536;28;20542;-75
2022/08/01 05:53:54;;;;;;;2.93;2.33;;;;;;;;;;5014427;28;20467;-75
2022/08/01 05:56:21;;;;;;;2.47;2.37;;;;;;;;;;5014435;28;20493;-76
2022/08/01 05:58:49;;;;;;;2.60;2.40;;;;;;;;;;5014240;28;20541;-75
2022/08/01 06:01:16;;;;;;;2.73;2.47;;;;;;;;;;5014086;28;20808;-76
2022/08/01 06:03:43;;;;;;;2.40;2.27;;;;;;;;;;5015070;28;20513;-75
2022/08/01 06:06:10;;;;;;;2.23;1.93;;;;;;;;;;5018130;28;20447;-76
2022/08/01 06:08:38;;;;;;;3.60;2.27;;;;;;;;;;5015212;28;20451;-76
2022/08/01 06:11:05;;;;;;;1.90;1.80;;;;;;;;;;5014669;28;20443;-76
2022/08/01 06:13:32;;;;;;;2.13;2.03;;;;;;;;;;5014309;28;21159;-77
2022/08/01 06:15:59;;;;;;;2.37;2.17;;;;;;;;;;5014545;28;20844;-76
2022/08/01 06:18:26;;;;;;;1.80;1.70;;;;;;;;;;5014812;28;20490;-75
2022/08/01 06:20:53;;;;;;;2.57;2.40;;;;;;;;;;5013890;28;20458;-76
2022/08/01 06:23:21;;;;;;;1.90;1.80;;;;;;;;;;5013654;28;20497;-75
2022/08/01 06:25:50;;;;;;;1.70;1.60;;;;;;;;;;5002882;28;20483;-75
2022/08/01 06:28:17;;;;;;;2.00;1.60;;;;;;;;;;4994385;28;20448;-75
2022/08/01 06:30:44;;;;;;;1.60;1.50;;;;;;;;;;4994015;28;20936;-75
2022/08/01 06:33:11;;;;;;;2.43;2.23;;;;;;;;;;4993842;28;20808;-75
2022/08/01 06:35:38;;;;;;;1.87;1.77;;;;;;;;;;4994244;28;20448;-76
2022/08/01 06:38:05;;;;;;;3.33;1.90;;;;;;;;;;4994530;28;20448;-77
2022/08/01 06:40:32;;;;;;;2.03;1.90;;;;;;;;;;4994232;28;20487;-76
2022/08/01 06:43:00;;;;;;;2.70;2.30;;;;;;;;;;4993866;28;20491;-77
2022/08/01 06:45:27;;;;;;;2.37;2.10;;;;;;;;;;4993987;28;20468;-75
2022/08/01 06:47:54;;;;;;;2.13;2.00;;;;;;;;;;4993865;28;21007;-77
2022/08/01 06:50:21;;;;;;;2.20;2.10;;;;;;;;;;4993915;28;20543;-76
2022/08/01 06:52:48;;;;;;;1.97;1.87;;;;;;;;;;4993754;28;20440;-76
2022/08/01 06:55:15;;;;;;;2.50;2.30;;;;;;;;;;4993715;28;20463;-76
2022/08/01 06:57:52;;;;;;;2.03;1.93;;;;;;;;;;4993770;28;20444;-76
2022/08/01 07:00:22;;;;;;;2.20;2.10;;;;;;;;;;4993536;28;20534;-76
2022/08/01 07:02:49;;;;;;;2.30;2.20;;;;;;;;;;4993411;28;20624;-76
2022/08/01 07:05:16;;;;;;;3.53;1.97;;;;;;;;;;4995340;28;20464;-76
2022/08/01 07:07:43;;;;;;;2.17;2.00;;;;;;;;;;5007994;28;20444;-76
2022/08/01 07:10:10;;;;;;;1.97;1.87;;;;;;;;;;5008795;28;20451;-75
2022/08/01 07:12:40;;;;;;;1.87;1.77;;;;;;;;;;5008465;28;20468;-75
2022/08/01 07:15:07;;;;;;;2.00;1.73;;;;;;;;;;5017627;28;20507;-75
2022/08/01 07:17:39;;;;;;;2.70;2.10;;;;;;;;;;5027540;28;20443;-76
2022/08/01 07:20:07;;;;;;;1.93;1.77;;;;;;;;;;5015560;28;20463;-75
2022/08/01 07:22:34;;;;;;;1.80;1.70;;;;;;;;;;5002175;28;20464;-76
2022/08/01 07:25:01;;;;;;;1.80;1.70;;;;;;;;;;5002093;28;20463;-75
2022/08/01 07:27:28;;;;;;;2.07;1.87;;;;;;;;;;5012862;28;20838;-75
2022/08/01 07:29:55;;;;;;;2.93;2.40;;;;;;;;;;5012569;28;20435;-76
2022/08/01 07:32:22;;;;;;;2.00;1.90;;;;;;;;;;5012494;28;20863;-76
2022/08/01 07:34:51;;;;;;;2.10;2.00;;;;;;;;;;5012688;28;20522;-76
2022/08/01 07:37:18;;;;;;;2.27;1.80;;;;;;;;;;5007622;28;20468;-75
2022/08/01 07:39:45;;;;;;;2.10;2.00;;;;;;;;;;5004098;28;20478;-76
2022/08/01 07:42:12;;;;;;;2.40;2.20;;;;;;;;;;5011953;28;20951;-76
2022/08/01 07:44:39;;;;;;;2.13;1.93;;;;;;;;;;5012224;28;20452;-76
2022/08/01 07:47:06;;;;;;;4.60;2.10;;;;;;;;;;5012430;28;20440;-75
2022/08/01 07:49:33;;;;;;;3.70;2.13;;;;;;;;;;5012485;28;20501;-76
2022/08/01 07:52:02;;;;;;;3.43;2.17;;;;;;;;;;5012549;28;20455;-75
2022/08/01 07:54:29;;;;;;;4.00;2.10;;;;;;;;;;5012414;28;21033;-77
2022/08/01 07:56:56;;;;;;;3.03;2.83;;;;;;;;;;5012228;28;20439;-77
2022/08/01 07:59:23;;;;;;;4.50;2.07;;;;;;;;;;5012169;28;20471;-77
2022/08/01 08:01:50;;;;;;;2.67;2.20;;;;;;;;;;5012339;28;20503;-77
2022/08/01 08:04:17;;;;;;;2.10;1.83;;;;;;;;;;5012461;28;20562;-75
2022/08/01 08:06:47;;;;;;;3.30;2.27;;;;;;;;;;5012367;28;20444;-75
2022/08/01 08:09:15;;;;;;;2.70;1.90;;;;;;;;;;5011881;28;20451;-76
2022/08/01 08:11:43;;;;;;;5.53;2.37;;;;;;;;;;5011667;28;20453;-76
2022/08/01 08:14:10;;;;;;;2.87;2.00;;;;;;;;;;5011538;28;20486;-76
2022/08/01 08:16:37;;;;;;;2.33;2.23;;;;;;;;;;5011992;28;20450;-75
2022/08/01 08:19:04;;;;;;;2.40;2.20;;;;;;;;;;5012079;28;21013;-75
2022/08/01 08:21:31;;;;;;;2.60;2.40;;;;;;;;;;5011650;28;20443;-76
2022/08/01 08:26:44;;;;;;;2.83;2.57;;;;;;;;;;5011440;28;20466;-76
2022/08/01 08:29:11;;;;;;;3.53;2.40;;;;;;;;;;5012755;28;20501;-75
2022/08/01 08:31:38;;;;;;;2.53;2.10;;;;;;;;;;5011742;28;20847;-76
2022/08/01 08:34:05;;;;;;;2.73;2.53;;;;;;;;;;5011650;28;20509;-76
2022/08/01 08:36:32;;;;;;;2.17;2.03;;;;;;;;;;5011786;28;20511;-76
2022/08/01 08:39:00;;;;;;;2.80;2.10;;;;;;;;;;5011848;28;20506;-75
2022/08/01 08:41:27;;;;;;;2.77;2.57;;;;;;;;;;5012137;28;20490;-76
2022/08/01 08:43:56;;;;;;;2.40;2.30;;;;;;;;;;5011781;28;20787;-76
2022/08/01 08:46:24;;;;;;;4.07;2.50;;;;;;;;;;5011658;28;20447;-75
2022/08/01 08:48:52;;;;;;;2.00;1.90;;;;;;;;;;5011721;28;20858;-76
2022/08/01 08:51:20;;;;;;;2.43;2.10;;;;;;;;;;5013690;28;20440;-77
2022/08/01 08:53:48;;;;;;;4.60;2.73;;;;;;;;;;5015074;28;20470;-76
2022/08/01 08:56:15;;;;;;;3.33;3.10;;;;;;;;;;5012948;28;20444;-76
2022/08/01 08:58:42;;;;;;;3.60;3.30;;;;;;;;;;5012027;28;20455;-77
2022/08/01 09:01:12;;;;;;;3.40;3.10;;;;;;;;;;5011363;28;20483;-76
2022/08/01 09:03:39;;;;;;;4.07;3.70;;;;;;;;;;5011582;28;20467;-75
2022/08/01 09:06:06;;;;;;;5.57;5.07;;;;;;;;;;5011586;28;20451;-76
2022/08/01 09:08:34;;;;;;;5.57;5.10;;;;;;;;;;5011614;28;20452;-76
2022/08/01 09:11:01;;;;;;;6.50;5.97;;;;;;;;;;4995851;28;20471;-76
2022/08/01 09:13:28;;;;;;;6.50;6.00;;;;;;;;;;4992771;28;20444;-77
2022/08/01 09:15:58;;;;;;;7.47;6.90;;;;;;;;;;5001713;28;20447;-74
2022/08/01 09:18:28;;;;;;;7.47;6.80;;;;;;;;;;5012329;28;20443;-76
2022/08/01 09:21:16;;;;;;;7.77;6.97;;;;;;;;;;5007751;28;20490;-75
2022/08/01 09:23:44;;;;;;;7.10;6.60;;;;;;;;;;5004287;28;20471;-77
2022/08/01 09:26:12;;;;;;;5.50;5.00;;;;;;;;;;5010496;28;20463;-77
2022/08/01 09:28:56;;;;;;;8.87;8.10;;;;;;;;;;5012088;28;20486;-76
2022/08/01 09:31:23;;;;;;;8.67;8.07;;;;;;;;;;5015343;28;20924;-75
2022/08/01 09:33:56;;;;;;;6.00;5.60;;;;;;;;;;5013180;28;20525;-76
2022/08/01 09:36:24;;;;;;;6.60;5.37;;;;;;;;;;5011556;28;20447;-76
2022/08/01 09:38:57;;;;;;;5.30;4.80;;;;;;;;;;5013172;28;20493;-77
2022/08/01 09:41:31;;;;;;;5.93;5.40;;;;;;;;;;5013742;28;20482;-76
2022/08/01 09:43:59;;;;;;;5.67;5.23;;;;;;;;;;5013375;28;20480;-77
2022/08/01 09:46:26;;;;;;;4.10;3.70;;;;;;;;;;5013130;28;20537;-76
2022/08/01 09:48:58;;;;;;;5.40;4.47;;;;;;;;;;5013983;28;20439;-77
2022/08/01 09:51:29;;;;;;;8.43;5.17;;;;;;;;;;5013170;28;20505;-76
2022/08/01 09:53:56;;;;;;;4.93;4.63;;;;;;;;;;5010889;28;20546;-76
2022/08/01 09:56:23;;;;;;;4.47;4.17;;;;;;;;;;5007850;28;20513;-76
2022/08/01 09:58:51;;;;;;;4.43;4.13;;;;;;;;;;5013086;28;20497;-75
2022/08/01 10:01:18;;;;;;;5.83;4.63;;;;;;;;;;5014399;28;20533;-77
2022/08/01 10:03:45;;;;;;;5.17;4.87;;;;;;;;;;5013715;28;20463;-76
2022/08/01 10:06:23;;;;;;;5.27;4.83;;;;;;;;;;5013453;28;20646;-76
2022/08/01 10:08:50;;;;;;;5.90;5.40;;;;;;;;;;5013578;28;20509;-76
2022/08/01 10:11:18;;;;;;;5.50;4.60;;;;;;;;;;5013180;28;20507;-76
2022/08/01 10:13:45;;;;;;;5.10;4.80;;;;;;;;;;5013239;28;20475;-76
2022/08/01 10:16:14;;;;;;;5.50;5.00;;;;;;;;;;5013116;28;20497;-76
2022/08/01 10:18:42;;;;;;;5.27;4.93;;;;;;;;;;5013005;28;20451;-77
2022/08/01 10:21:09;;;;;;;4.57;4.27;;;;;;;;;;5012868;28;21064;-75
2022/08/01 10:23:39;;;;;;;4.50;4.10;;;;;;;;;;5012767;28;20467;-76
2022/08/01 10:26:06;;;;;;;4.63;4.33;;;;;;;;;;5012633;28;20859;-75
2022/08/01 10:28:36;;;;;;;4.20;3.90;;;;;;;;;;5012902;28;20454;-76
2022/08/01 10:31:03;;;;;;;4.90;4.50;;;;;;;;;;5012618;28;20523;-75
2022/08/01 10:33:30;;;;;;;5.30;4.13;;;;;;;;;;5012553;28;20443;-75
2022/08/01 10:35:58;;;;;;;3.83;3.57;;;;;;;;;;5012829;28;20443;-75
2022/08/01 10:38:25;;;;;;;5.07;3.53;;;;;;;;;;5013157;28;20530;-76
2022/08/01 10:40:54;;;;;;;7.37;3.50;;;;;;;;;;5012719;28;20517;-75
2022/08/01 10:43:21;;;;;;;3.50;3.23;;;;;;;;;;5012733;28;20443;-77
2022/08/01 10:45:48;;;;;;;3.30;3.10;;;;;;;;;;5012817;28;20455;-75
2022/08/01 10:48:17;;;;;;;4.00;3.70;;;;;;;;;;5012438;28;20794;-77
2022/08/01 10:50:45;;;;;;;3.83;3.60;;;;;;;;;;5012310;28;20543;-75
2022/08/01 10:53:14;;;;;;;3.97;3.63;;;;;;;;;;5012347;28;20505;-76
2022/08/01 10:55:48;;;;;;;4.93;4.20;;;;;;;;;;5012499;28;20454;-76
2022/08/01 10:58:21;;;;;;;4.50;4.20;;;;;;;;;;5012302;28;20447;-74
2022/08/01 11:00:48;;;;;;;4.77;4.10;;;;;;;;;;5012277;28;20483;-76
2022/08/01 11:03:15;;;;;;;4.13;3.93;;;;;;;;;;5011931;28;20478;-75
2022/08/01 11:05:43;;;;;;;3.87;3.63;;;;;;;;;;5012315;28;20439;-75
2022/08/01 11:08:11;;;;;;;3.30;3.10;;;;;;;;;;5012165;28;20470;-76
2022/08/01 11:10:39;;;;;;;3.10;3.00;;;;;;;;;;4999924;28;20441;-77
2022/08/01 11:13:08;;;;;;;3.70;3.50;;;;;;;;;;4992466;28;20859;-77
2022/08/01 11:15:36;;;;;;;3.67;3.30;;;;;;;;;;4992262;28;20480;-76
2022/08/01 11:18:05;;;;;;;4.30;3.90;;;;;;;;;;4992400;28;20850;-77
2022/08/01 11:20:33;;;;;;;3.97;3.57;;;;;;;;;;4992231;28;20505;-75
2022/08/01 11:23:24;;;;;;;5.30;3.67;;;;;;;;;;4992249;28;20462;-77
2022/08/01 11:26:10;;;;;;;3.33;3.13;;;;;;;;;;4992365;28;20512;-76
2022/08/01 11:28:37;;;;;;;3.50;3.20;;;;;;;;;;4992133;28;20518;-77
2022/08/01 11:31:22;;;;;;;3.40;3.20;;;;;;;;;;4991990;28;20444;-76
2022/08/01 11:33:50;;;;;;;2.90;2.70;;;;;;;;;;4991360;28;20644;-76
2022/08/01 11:36:20;;;;;;;3.30;3.10;;;;;;;;;;4992521;28;20444;-76
2022/08/01 11:38:47;;;;;;;4.23;3.03;;;;;;;;;;4991591;28;20823;-74
2022/08/01 11:41:16;;;;;;;2.80;2.70;;;;;;;;;;4991704;28;20480;-75
2022/08/01 11:43:56;;;;;;;3.00;2.80;;;;;;;;;;4991335;28;20468;-75
2022/08/01 11:46:38;;;;;;;3.80;3.40;;;;;;;;;;4991648;28;20510;-74
2022/08/01 11:49:23;;;;;;;2.80;2.70;;;;;;;;;;4991190;28;20448;-75
2022/08/01 11:51:58;;;;;;;3.30;3.10;;;;;;;;;;4991611;28;20948;-75
2022/08/01 11:54:26;;;;;;;3.53;3.07;;;;;;;;;;4990843;28;20972;-75
2022/08/01 11:56:55;;;;;;;3.07;2.83;;;;;;;;;;4991455;28;20925;-75
2022/08/01 11:59:23;;;;;;;4.00;2.87;;;;;;;;;;4991601;28;20448;-76
2022/08/01 12:01:50;;;;;;;3.00;2.80;;;;;;;;;;4991480;28;20486;-75
2022/08/01 12:04:17;;;;;;;2.83;2.53;;;;;;;;;;4992496;28;20460;-74
2022/08/01 12:06:44;;;;;;;3.30;3.00;;;;;;;;;;4992452;28;20452;-75
2022/08/01 12:09:19;;;;;;;3.53;3.20;;;;;;;;;;4991963;28;20452;-76
2022/08/01 12:11:46;;;;;;;3.03;2.93;;;;;;;;;;5011072;28;20807;-76
2022/08/01 12:14:17;;;;;;;3.73;3.43;;;;;;;;;;5010878;28;20479;-75
2022/08/01 12:16:49;;;;;;;3.10;2.90;;;;;;;;;;5011518;28;20446;-76
2022/08/01 12:19:19;;;;;;;2.97;2.80;;;;;;;;;;5011202;28;21001;-76
2022/08/01 12:21:46;;;;;;;2.90;2.70;;;;;;;;;;5011284;28;20487;-74
2022/08/01 12:24:13;;;;;;;2.70;2.60;;;;;;;;;;5011439;28;20835;-74
2022/08/01 12:26:42;;;;;;;4.00;3.03;;;;;;;;;;5016256;28;20448;-76
2022/08/01 12:29:09;;;;;;;3.30;3.10;;;;;;;;;;5017321;28;20502;-75
2022/08/01 12:31:36;;;;;;;3.20;3.00;;;;;;;;;;5012275;28;20440;-75
2022/08/01 12:34:21;;;;;;;3.30;3.10;;;;;;;;;;5011482;28;20467;-74
2022/08/01 12:36:48;;;;;;;3.60;3.40;;;;;;;;;;5001034;28;20457;-77
2022/08/01 12:39:15;;;;;;;3.83;3.63;;;;;;;;;;5010948;28;20446;-75
2022/08/01 12:41:45;;;;;;;5.97;3.07;;;;;;;;;;5010547;28;20479;-76
2022/08/01 12:44:15;;;;;;;2.70;2.60;;;;;;;;;;5010470;28;20463;-76
2022/08/01 12:46:43;;;;;;;3.10;2.90;;;;;;;;;;5010653;28;20470;-76
2022/08/01 12:49:10;;;;;;;2.77;2.57;;;;;;;;;;5010592;28;20493;-75
2022/08/01 12:51:37;;;;;;;2.80;2.60;;;;;;;;;;5010528;28;20531;-75
2022/08/01 12:54:04;;;;;;;2.90;2.70;;;;;;;;;;5010283;28;20462;-76
2022/08/01 12:56:34;;;;;;;2.70;2.60;;;;;;;;;;5010541;28;20451;-76
2022/08/01 12:59:03;;;;;;;2.90;2.70;;;;;;;;;;5009933;28;20450;-75
2022/08/01 13:01:30;;;;;;;3.30;3.10;;;;;;;;;;5010990;28;20533;-75
2022/08/01 13:04:01;;;;;;;3.90;2.93;;;;;;;;;;5010411;28;20476;-75
2022/08/01 13:06:30;;;;;;;5.33;2.60;;;;;;;;;;5010403;28;20646;-75
2022/08/01 13:09:05;;;;;;;3.60;3.30;;;;;;;;;;5010059;28;20447;-75
2022/08/01 13:11:32;;;;;;;3.60;3.27;;;;;;;;;;4990984;28;20435;-76
2022/08/01 13:14:00;;;;;;;2.80;2.60;;;;;;;;;;4994867;28;20852;-75
2022/08/01 13:16:29;;;;;;;3.70;2.70;;;;;;;;;;4994745;28;20514;-75
2022/08/01 13:18:57;;;;;;;4.20;3.17;;;;;;;;;;4995442;28;20448;-75
2022/08/01 13:21:25;;;;;;;4.03;2.40;;;;;;;;;;4994362;28;20500;-75
2022/08/01 13:24:02;;;;;;;2.80;2.70;;;;;;;;;;4994422;28;20471;-76
2022/08/01 13:26:39;;;;;;;3.20;2.90;;;;;;;;;;4994751;28;20936;-75
2022/08/01 13:29:07;;;;;;;2.50;2.07;;;;;;;;;;4994654;28;20864;-75
2022/08/01 13:31:36;;;;;;;2.50;2.23;;;;;;;;;;4995029;28;20494;-76
2022/08/01 13:34:03;;;;;;;2.83;2.37;;;;;;;;;;4994699;28;20526;-76
2022/08/01 13:36:30;;;;;;;2.87;2.63;;;;;;;;;;4995062;28;20448;-76
2022/08/01 13:41:42;;;;;;;3.07;2.70;;;;;;;;;;4994950;28;20995;-76
2022/08/01 13:44:10;;;;;;;2.50;2.30;;;;;;;;;;4994585;28;20800;-75
2022/08/01 13:46:39;;;;;;;2.83;2.60;;;;;;;;;;4997251;28;20440;-75
2022/08/01 13:49:07;;;;;;;2.90;2.60;;;;;;;;;;5002437;28;20436;-76
2022/08/01 13:51:34;;;;;;;2.40;2.20;;;;;;;;;;5001292;28;20452;-75
2022/08/01 13:54:01;;;;;;;2.33;2.23;;;;;;;;;;5001960;28;20891;-74
2022/08/01 13:56:29;;;;;;;4.30;2.80;;;;;;;;;;4994900;28;20436;-76
2022/08/01 13:58:56;;;;;;;2.23;1.97;;;;;;;;;;4995788;28;20498;-74
2022/08/01 14:01:23;;;;;;;4.20;2.10;;;;;;;;;;4994743;28;20530;-76
2022/08/01 14:03:52;;;;;;;2.90;2.70;;;;;;;;;;4994677;28;20468;-74
2022/08/01 14:06:21;;;;;;;2.50;2.30;;;;;;;;;;4994961;28;20440;-76
2022/08/01 14:08:48;;;;;;;5.80;2.80;;;;;;;;;;4994946;28;20445;-74
2022/08/01 14:11:15;;;;;;;2.40;2.30;;;;;;;;;;5012342;28;20855;-75
2022/08/01 14:13:42;;;;;;;2.70;2.50;;;;;;;;;;5009573;28;20471;-75
2022/08/01 14:16:09;;;;;;;3.50;2.47;;;;;;;;;;5013190;28;20447;-76
2022/08/01 14:18:36;;;;;;;2.67;2.40;;;;;;;;;;5013828;28;20796;-75
2022/08/01 14:21:04;;;;;;;2.50;2.40;;;;;;;;;;5014085;28;20521;-74
2022/08/01 14:23:31;;;;;;;3.07;2.87;;;;;;;;;;5013386;28;21115;-76
2022/08/01 14:25:58;;;;;;;4.20;2.37;;;;;;;;;;5013756;28;20890;-75
2022/08/01 14:28:27;;;;;;;2.53;2.43;;;;;;;;;;5013496;28;20505;-73
2022/08/01 14:30:55;;;;;;;2.63;2.43;;;;;;;;;;5014304;28;20814;-75
2022/08/01 14:33:22;;;;;;;2.83;2.43;;;;;;;;;;5013896;28;20448;-76
2022/08/01 14:35:49;;;;;;;3.57;2.40;;;;;;;;;;5014441;28;20443;-74
2022/08/01 14:38:18;;;;;;;2.67;2.47;;;;;;;;;;5013469;28;20448;-76
2022/08/01 14:40:46;;;;;;;2.90;2.53;;;;;;;;;;5013340;28;20502;-75
2022/08/01 14:43:13;;;;;;;2.57;2.37;;;;;;;;;;5012779;28;20487;-75
2022/08/01 14:45:40;;;;;;;3.03;2.63;;;;;;;;;;5012994;28;20850;-75
2022/08/01 14:48:07;;;;;;;2.97;2.70;;;;;;;;;;5013451;28;20526;-74
2022/08/01 14:50:34;;;;;;;2.73;2.53;;;;;;;;;;5013485;28;20443;-76
2022/08/01 14:53:01;;;;;;;2.40;2.17;;;;;;;;;;5013123;28;20471;-75
2022/08/01 14:55:30;;;;;;;2.20;2.10;;;;;;;;;;5013440;28;20460;-75
2022/08/01 14:57:57;;;;;;;2.10;2.00;;;;;;;;;;5013313;28;20455;-75